createdAt,value
2022-09-14T00:01:28.700Z,99132.56
2022-09-14T00:04:04.846Z,99124.75
2022-09-14T00:06:32.810Z,99102.28
2022-09-14T00:09:01.434Z,99040.81
2022-09-14T00:11:30.744Z,99123.91
2022-09-14T00:13:59.711Z,99123.03
2022-09-14T00:16:30.063Z,99123.03
2022-09-14T00:19:01.073Z,99088.41
2022-09-14T00:21:28.546Z,99009.59
2022-09-14T00:23:55.643Z,99101.38
2022-09-14T00:26:23.813Z,99074.53
2022-09-14T00:28:56.312Z,99046.88
2022-09-14T00:31:24.370Z,99017.44
2022-09-14T00:33:53.080Z,99100.53
2022-09-14T00:36:26.602Z,99106.59
2022-09-14T00:38:56.826Z,99098.75
2022-09-14T00:41:29.979Z,99086.66
2022-09-14T00:43:58.900Z,99095.31
2022-09-14T00:46:28.325Z,99091.88
2022-09-14T00:48:58.703Z,99090.94
2022-09-14T00:51:26.795Z,99059.78
2022-09-14T00:53:54.048Z,99078.81
2022-09-14T00:56:21.921Z,99075.31
2022-09-14T00:58:53.232Z,99077.06
2022-09-14T01:01:20.591Z,98997.44
2022-09-14T01:03:47.707Z,99077.06
2022-09-14T01:06:35.498Z,99067.53
2022-09-14T01:09:05.484Z,99045.03
2022-09-14T01:11:38.291Z,99072.72
2022-09-14T01:14:13.243Z,98891.00
2022-09-14T01:16:47.852Z,99057.09
2022-09-14T01:19:44.545Z,98882.34
2022-09-14T01:22:52.948Z,99060.53
2022-09-14T01:25:20.104Z,99059.69
2022-09-14T01:27:49.622Z,99044.94
2022-09-14T01:30:23.032Z,99051.88
2022-09-14T01:33:15.202Z,98955.84
2022-09-14T01:35:51.346Z,98975.78
2022-09-14T01:38:36.291Z,99042.38
2022-09-14T01:41:07.310Z,99050.16
2022-09-14T01:43:40.998Z,99037.19
2022-09-14T01:46:13.666Z,99043.22
2022-09-14T01:48:50.707Z,99039.75
2022-09-14T01:51:28.526Z,99052.78
2022-09-14T01:54:03.740Z,99032.00
2022-09-14T01:56:36.935Z,99023.31
2022-09-14T01:59:07.328Z,99041.50
2022-09-14T02:01:50.648Z,99031.09
2022-09-14T02:04:29.645Z,99032.03
2022-09-14T02:06:57.181Z,99020.75
2022-09-14T02:09:26.964Z,99017.25
2022-09-14T02:12:00.730Z,98974.88
2022-09-14T02:14:29.178Z,99010.31
2022-09-14T02:16:56.365Z,98971.38
2022-09-14T02:19:26.157Z,99005.09
2022-09-14T02:21:53.791Z,98982.63
2022-09-14T02:24:20.957Z,99005.94
2022-09-14T02:26:51.376Z,98994.72
2022-09-14T02:29:18.572Z,99001.63
2022-09-14T02:32:18.632Z,98977.34
2022-09-14T02:34:57.871Z,98978.22
2022-09-14T02:37:38.027Z,98926.41
2022-09-14T02:40:18.469Z,98945.41
2022-09-14T02:43:09.182Z,98922.94
2022-09-14T02:45:36.127Z,98999.00
2022-09-14T02:48:18.265Z,99000.72
2022-09-14T02:50:55.045Z,99000.72
2022-09-14T02:53:30.420Z,98929.81
2022-09-14T02:56:04.815Z,98924.63
2022-09-14T02:58:44.090Z,98949.69
2022-09-14T03:01:15.545Z,98887.41
2022-09-14T03:03:42.783Z,98917.66
2022-09-14T03:06:10.127Z,98994.63
2022-09-14T03:08:37.456Z,98946.22
2022-09-14T03:11:06.154Z,98770.72
2022-09-14T03:13:34.933Z,98969.56
2022-09-14T03:16:20.124Z,98990.31
2022-09-14T03:18:47.307Z,98982.50
2022-09-14T03:21:16.533Z,98957.44
2022-09-14T03:23:46.398Z,98976.44
2022-09-14T03:26:17.046Z,98971.28
2022-09-14T03:28:45.274Z,98959.16
2022-09-14T03:31:13.457Z,98965.19
2022-09-14T03:33:40.866Z,98868.34
2022-09-14T03:36:17.258Z,98972.13
2022-09-14T03:38:48.148Z,98915.91
2022-09-14T03:41:15.326Z,98892.59
2022-09-14T03:43:43.468Z,98964.34
2022-09-14T03:46:14.115Z,98959.16
2022-09-14T03:48:41.308Z,98963.47
2022-09-14T03:51:10.104Z,98950.47
2022-09-14T03:53:38.221Z,98921.06
2022-09-14T03:56:10.992Z,98946.13
2022-09-14T03:58:38.759Z,98946.13
2022-09-14T04:01:11.212Z,98942.66
2022-09-14T04:03:38.670Z,98899.47
2022-09-14T04:06:06.889Z,98937.47
2022-09-14T04:08:35.830Z,98942.69
2022-09-14T04:11:11.824Z,98954.78
2022-09-14T04:13:39.291Z,98934.94
2022-09-14T04:16:06.663Z,98956.47
2022-09-14T04:18:33.888Z,98930.50
2022-09-14T04:21:08.449Z,98946.03
2022-09-14T04:24:10.236Z,98931.34
2022-09-14T04:26:26.901Z,98946.03
2022-09-14T04:28:55.126Z,98947.69
2022-09-14T04:31:22.518Z,98940.75
2022-09-14T04:33:50.904Z,98941.59
2022-09-14T04:36:20.811Z,98941.59
2022-09-14T04:38:48.396Z,98931.19
2022-09-14T04:41:17.373Z,98777.41
2022-09-14T04:43:46.322Z,98956.25
2022-09-14T04:46:21.747Z,98943.25
2022-09-14T04:48:49.545Z,98957.09
2022-09-14T04:51:20.238Z,98866.41
2022-09-14T04:53:50.565Z,98932.09
2022-09-14T04:56:18.952Z,98917.31
2022-09-14T04:58:51.565Z,98934.66
2022-09-14T05:01:22.047Z,98879.31
2022-09-14T05:03:49.661Z,98960.66
2022-09-14T05:06:19.651Z,98943.31
2022-09-14T05:08:47.684Z,98963.16
2022-09-14T05:11:20.941Z,98970.97
2022-09-14T05:13:50.131Z,98922.47
2022-09-14T05:16:20.770Z,98950.13
2022-09-14T05:18:49.066Z,98970.00
2022-09-14T05:21:18.047Z,98951.81
2022-09-14T05:23:45.653Z,98953.56
2022-09-14T05:26:13.697Z,98967.38
2022-09-14T05:28:41.049Z,98963.09
2022-09-14T05:31:10.647Z,98945.75
2022-09-14T05:33:37.831Z,98918.91
2022-09-14T05:36:07.339Z,98916.34
2022-09-14T05:38:36.319Z,98969.91
2022-09-14T05:41:04.503Z,98943.94
2022-09-14T05:43:32.227Z,98948.25
2022-09-14T05:46:04.103Z,98934.38
2022-09-14T05:48:32.796Z,98958.53
2022-09-14T05:51:07.522Z,98920.44
2022-09-14T05:53:34.874Z,98949.88
2022-09-14T05:56:13.924Z,98880.72
2022-09-14T05:58:42.530Z,98942.06
2022-09-14T06:01:20.113Z,98929.91
2022-09-14T06:03:48.575Z,98945.44
2022-09-14T06:06:18.692Z,98884.09
2022-09-14T06:08:46.834Z,98939.34
2022-09-14T06:11:16.473Z,98936.75
2022-09-14T06:13:44.463Z,98952.31
2022-09-14T06:16:14.263Z,98953.19
2022-09-14T06:18:43.099Z,98916.03
2022-09-14T06:21:15.440Z,98958.34
2022-09-14T06:23:43.537Z,98912.47
2022-09-14T06:26:10.950Z,98945.34
2022-09-14T06:28:39.381Z,98879.75
2022-09-14T06:31:10.075Z,98873.69
2022-09-14T06:33:37.464Z,98928.94
2022-09-14T06:36:12.433Z,98935.88
2022-09-14T06:38:40.690Z,98946.22
2022-09-14T06:41:09.895Z,98947.00
2022-09-14T06:43:40.386Z,98880.44
2022-09-14T06:46:16.564Z,98950.44
2022-09-14T06:48:56.067Z,98942.63
2022-09-14T06:51:31.793Z,98949.56
2022-09-14T06:54:00.331Z,98948.69
2022-09-14T06:56:37.329Z,98955.56
2022-09-14T06:59:05.225Z,98931.94
2022-09-14T07:01:32.814Z,98922.56
2022-09-14T07:04:01.824Z,98931.16
2022-09-14T07:06:33.426Z,98925.06
2022-09-14T07:09:04.159Z,98926.81
2022-09-14T07:11:31.947Z,98920.69
2022-09-14T07:13:59.160Z,98911.09
2022-09-14T07:16:27.350Z,98872.19
2022-09-14T07:18:55.682Z,98899.78
2022-09-14T07:21:23.596Z,98917.00
2022-09-14T07:23:51.394Z,98917.97
2022-09-14T07:26:30.670Z,98910.13
2022-09-14T07:29:00.401Z,98920.47
2022-09-14T07:31:30.449Z,98914.38
2022-09-14T07:34:00.078Z,98917.00
2022-09-14T07:36:31.609Z,98916.06
2022-09-14T07:39:02.167Z,98923.94
2022-09-14T07:41:30.604Z,98917.94
2022-09-14T07:44:00.644Z,98918.78
2022-09-14T07:46:29.697Z,98897.19
2022-09-14T07:48:58.941Z,98921.31
2022-09-14T07:51:28.107Z,98910.09
2022-09-14T07:53:55.626Z,98915.22
2022-09-14T07:56:23.219Z,98922.19
2022-09-14T07:58:55.404Z,98910.03
2022-09-14T08:01:26.428Z,98915.25
2022-09-14T08:03:53.554Z,98892.81
2022-09-14T08:06:23.039Z,98863.44
2022-09-14T08:08:52.039Z,98917.81
2022-09-14T08:11:20.916Z,98884.13
2022-09-14T08:14:10.273Z,98911.66
2022-09-14T08:16:41.696Z,98890.16
2022-09-14T08:19:13.914Z,98903.03
2022-09-14T08:21:46.264Z,98907.25
2022-09-14T08:24:16.365Z,98838.19
2022-09-14T08:26:43.840Z,98856.13
2022-09-14T08:29:13.641Z,98896.66
2022-09-14T08:31:41.129Z,98823.31
2022-09-14T08:34:08.908Z,98894.72
2022-09-14T08:36:38.288Z,98737.78
2022-09-14T08:39:09.385Z,98896.38
2022-09-14T08:42:06.298Z,98893.50
2022-09-14T08:44:52.396Z,98798.66
2022-09-14T08:47:38.979Z,98898.81
2022-09-14T08:50:21.355Z,98835.78
2022-09-14T08:52:53.022Z,98818.66
2022-09-14T08:55:43.164Z,98799.59
2022-09-14T08:58:10.034Z,98897.22
2022-09-14T09:00:47.054Z,98831.63
2022-09-14T09:03:42.963Z,98898.72
2022-09-14T09:06:23.705Z,98902.38
2022-09-14T09:09:04.749Z,98893.66
2022-09-14T09:11:41.457Z,98888.34
2022-09-14T09:14:23.460Z,98895.28
2022-09-14T09:16:54.003Z,98903.94
2022-09-14T09:20:01.302Z,98893.50
2022-09-14T09:22:31.725Z,98870.38
2022-09-14T09:25:00.865Z,98897.09
2022-09-14T09:27:28.005Z,98884.09
2022-09-14T09:29:55.304Z,98800.38
2022-09-14T09:32:25.702Z,98884.13
2022-09-14T09:35:24.255Z,98891.81
2022-09-14T09:37:56.994Z,98868.59
2022-09-14T09:40:47.108Z,98812.41
2022-09-14T09:43:29.017Z,98883.06
2022-09-14T09:46:07.922Z,98867.44
2022-09-14T09:48:43.990Z,98864.78
2022-09-14T09:51:27.309Z,98787.91
2022-09-14T09:53:57.029Z,98877.56
2022-09-14T09:56:27.805Z,98874.97
2022-09-14T09:58:55.003Z,98661.13
2022-09-14T10:01:26.702Z,98858.59
2022-09-14T10:04:04.756Z,98853.31
2022-09-14T10:06:32.044Z,98862.91
2022-09-14T10:08:59.289Z,98856.94
2022-09-14T10:11:31.545Z,98804.63
2022-09-14T10:13:59.238Z,98870.91
2022-09-14T10:16:33.265Z,98844.13
2022-09-14T10:19:02.900Z,98845.88
2022-09-14T10:21:31.428Z,98876.97
2022-09-14T10:24:20.343Z,98864.72
2022-09-14T10:26:47.285Z,98870.84
2022-09-14T10:29:35.544Z,98865.66
2022-09-14T10:32:12.813Z,98865.63
2022-09-14T10:34:40.006Z,98794.00
2022-09-14T10:37:32.179Z,98875.94
2022-09-14T10:40:08.235Z,98898.56
2022-09-14T10:42:41.141Z,98807.03
2022-09-14T10:45:23.889Z,98893.25
2022-09-14T10:48:18.737Z,98882.81
2022-09-14T10:50:53.664Z,98846.69
2022-09-14T10:53:42.541Z,98882.94
2022-09-14T10:56:22.096Z,98874.38
2022-09-14T10:59:05.604Z,98875.28
2022-09-14T11:02:09.683Z,98896.06
2022-09-14T11:04:59.981Z,98889.97
2022-09-14T11:07:54.583Z,98809.78
2022-09-14T11:10:26.186Z,98887.44
2022-09-14T11:13:25.202Z,98858.03
2022-09-14T11:15:58.630Z,98888.31
2022-09-14T11:18:44.938Z,98897.81
2022-09-14T11:21:17.931Z,98834.00
2022-09-14T11:24:25.662Z,98889.06
2022-09-14T11:27:04.485Z,98906.50
2022-09-14T11:29:52.032Z,98877.78
2022-09-14T11:32:25.315Z,98812.28
2022-09-14T11:35:03.472Z,98887.28
2022-09-14T11:37:36.951Z,98884.66
2022-09-14T11:40:14.589Z,98901.13
2022-09-14T11:43:08.977Z,98807.72
2022-09-14T11:45:53.744Z,98879.25
2022-09-14T11:48:43.651Z,98876.72
2022-09-14T11:51:19.392Z,98849.06
2022-09-14T11:53:47.389Z,98859.53
2022-09-14T11:56:32.185Z,98800.00
2022-09-14T11:59:03.528Z,98859.50
2022-09-14T12:01:37.050Z,98762.94
2022-09-14T12:04:16.760Z,98863.78
2022-09-14T12:06:54.172Z,98861.13
2022-09-14T12:09:21.653Z,98852.50
2022-09-14T12:11:54.550Z,98874.94
2022-09-14T12:14:24.772Z,98870.56
2022-09-14T12:20:43.106Z,98851.28
2022-09-14T12:23:20.828Z,98858.25
2022-09-14T12:25:58.526Z,98835.75
2022-09-14T12:28:30.505Z,98857.31
2022-09-14T12:30:57.480Z,98850.25
2022-09-14T12:33:31.249Z,98845.88
2022-09-14T12:35:58.879Z,98801.94
2022-09-14T12:38:31.834Z,98844.06
2022-09-14T12:41:00.974Z,98845.00
2022-09-14T12:43:34.226Z,98694.19
2022-09-14T12:46:01.377Z,98726.97
2022-09-14T12:48:49.569Z,98823.28
2022-09-14T12:51:32.664Z,98831.22
2022-09-14T12:54:08.809Z,98850.34
2022-09-14T12:57:03.130Z,98845.00
2022-09-14T12:59:36.297Z,98826.09
2022-09-14T13:02:25.399Z,98847.50
2022-09-14T13:04:55.412Z,98837.16
2022-09-14T13:07:23.396Z,98820.81
2022-09-14T13:09:53.436Z,98818.16
2022-09-14T13:12:34.677Z,98737.88
2022-09-14T13:15:06.861Z,98826.69
2022-09-14T13:17:33.905Z,98823.38
2022-09-14T13:20:06.027Z,98732.84
2022-09-14T13:22:33.956Z,98798.34
2022-09-14T13:25:01.677Z,98832.75
2022-09-14T13:27:36.284Z,98830.22
2022-09-14T13:30:08.122Z,98747.38
2022-09-14T13:32:41.337Z,98833.56
2022-09-14T13:35:23.086Z,98756.84
2022-09-14T13:37:50.590Z,98796.59
2022-09-14T13:40:28.724Z,98822.47
2022-09-14T13:42:57.987Z,98817.53
2022-09-14T13:45:25.768Z,98825.06
2022-09-14T13:47:54.465Z,98834.59
2022-09-14T13:50:25.497Z,98795.59
2022-09-14T13:53:03.019Z,98727.59
2022-09-14T13:55:34.195Z,98735.31
2022-09-14T13:58:24.839Z,98826.56
2022-09-14T14:01:03.979Z,98809.34
2022-09-14T14:03:37.520Z,98825.75
2022-09-14T14:06:29.536Z,98828.19
2022-09-14T14:09:03.852Z,98806.66
2022-09-14T14:11:37.927Z,98810.09
2022-09-14T14:14:17.204Z,98598.13
2022-09-14T14:17:29.455Z,98828.06
2022-09-14T14:19:59.173Z,98718.78
2022-09-14T14:22:37.710Z,98829.81
2022-09-14T14:25:28.625Z,98841.97
2022-09-14T14:28:01.560Z,98816.09
2022-09-14T14:30:30.646Z,98821.25
2022-09-14T14:32:59.552Z,98744.72
2022-09-14T14:35:30.403Z,98839.38
2022-09-14T14:37:58.442Z,98820.34
2022-09-14T14:40:27.776Z,98766.94
2022-09-14T14:42:55.573Z,98814.28
2022-09-14T14:45:27.262Z,98803.06
2022-09-14T14:47:55.953Z,98826.38
2022-09-14T14:50:28.763Z,98763.53
2022-09-14T14:52:57.206Z,98726.56
2022-09-14T14:55:25.815Z,98754.16
2022-09-14T14:57:53.108Z,98806.75
2022-09-14T15:00:24.383Z,98836.16
2022-09-14T15:02:52.474Z,98789.56
2022-09-14T15:05:20.316Z,98745.66
2022-09-14T15:07:49.837Z,98800.81
2022-09-14T15:10:18.262Z,98831.06
2022-09-14T15:12:46.026Z,98826.72
2022-09-14T15:15:24.790Z,98729.28
2022-09-14T15:17:52.857Z,98700.06
2022-09-14T15:20:21.240Z,98752.56
2022-09-14T15:22:48.950Z,98798.16
2022-09-14T15:25:18.122Z,98820.59
2022-09-14T15:27:45.692Z,98797.97
2022-09-14T15:30:15.750Z,98779.22
2022-09-14T15:32:43.165Z,98708.66
2022-09-14T15:35:14.328Z,98790.53
2022-09-14T15:37:42.002Z,98822.41
2022-09-14T15:40:11.001Z,98798.16
2022-09-14T15:42:38.936Z,98812.94
2022-09-14T15:45:07.517Z,98739.56
2022-09-14T15:47:36.633Z,98819.72
2022-09-14T15:50:05.386Z,98816.28
2022-09-14T15:52:36.223Z,98791.34
2022-09-14T15:55:06.493Z,98821.50
2022-09-14T15:57:34.465Z,98785.31
2022-09-14T16:00:04.644Z,98792.22
2022-09-14T16:02:42.207Z,98817.22
2022-09-14T16:05:09.890Z,98816.34
2022-09-14T16:07:37.034Z,98758.59
2022-09-14T16:10:04.529Z,98779.22
2022-09-14T16:12:31.836Z,98774.97
2022-09-14T16:14:58.853Z,98794.75
2022-09-14T16:17:26.462Z,98781.97
2022-09-14T16:19:53.987Z,98725.91
2022-09-14T16:22:22.235Z,98794.84
2022-09-14T16:24:52.978Z,98752.75
2022-09-14T16:27:20.507Z,98806.88
2022-09-14T16:29:47.926Z,98784.44
2022-09-14T16:32:15.950Z,98585.41
2022-09-14T16:34:43.390Z,98784.41
2022-09-14T16:37:11.024Z,98765.47
2022-09-14T16:39:38.256Z,98794.84
2022-09-14T16:42:05.706Z,98794.03
2022-09-14T16:44:33.513Z,98683.75
2022-09-14T16:47:03.481Z,98772.50
2022-09-14T16:49:31.130Z,98689.66
2022-09-14T16:52:00.981Z,98717.34
2022-09-14T16:54:30.002Z,98720.75
2022-09-14T16:56:58.402Z,98792.34
2022-09-14T16:59:27.053Z,98744.03
2022-09-14T17:01:55.380Z,98777.63
2022-09-14T17:04:25.149Z,98772.50
2022-09-14T17:06:53.131Z,98760.44
2022-09-14T17:09:26.622Z,98778.59
2022-09-14T17:11:54.824Z,98755.38
2022-09-14T17:14:25.480Z,98763.97
2022-09-14T17:16:53.714Z,98779.50
2022-09-14T17:19:21.473Z,98773.41
2022-09-14T17:21:49.660Z,98773.44
2022-09-14T17:24:20.752Z,98751.03
2022-09-14T17:26:48.291Z,98744.13
2022-09-14T17:29:15.873Z,98696.78
2022-09-14T17:31:44.387Z,98770.06
2022-09-14T17:34:13.836Z,98719.22
2022-09-14T17:36:41.143Z,98745.91
2022-09-14T17:39:12.207Z,98701.22
2022-09-14T17:41:44.378Z,98775.47
2022-09-14T17:44:14.260Z,98767.66
2022-09-14T17:46:52.844Z,98763.34
2022-09-14T17:49:23.158Z,98744.34
2022-09-14T17:51:53.508Z,98753.75
2022-09-14T17:54:21.667Z,98755.38
2022-09-14T17:56:49.115Z,98761.44
2022-09-14T17:59:20.272Z,98745.91
2022-09-14T18:01:49.444Z,98744.94
2022-09-14T18:04:18.126Z,98764.88
2022-09-14T18:06:49.963Z,98744.19
2022-09-14T18:09:20.311Z,98752.00
2022-09-14T18:11:49.684Z,98723.56
2022-09-14T18:14:17.237Z,98747.75
2022-09-14T18:16:45.082Z,98733.00
2022-09-14T18:19:13.388Z,98735.63
2022-09-14T18:21:41.740Z,98749.34
2022-09-14T18:24:11.727Z,98745.13
2022-09-14T18:26:39.051Z,98718.44
2022-09-14T18:29:06.291Z,98743.53
2022-09-14T18:31:33.510Z,98674.53
2022-09-14T18:34:01.342Z,98690.03
2022-09-14T18:36:30.030Z,98656.38
2022-09-14T18:38:58.891Z,98725.28
2022-09-14T18:41:29.013Z,98652.91
2022-09-14T18:43:56.126Z,98674.44
2022-09-14T18:46:27.782Z,98720.06
2022-09-14T18:49:00.657Z,98736.38
2022-09-14T18:51:30.139Z,98721.84
2022-09-14T18:54:03.777Z,98739.00
2022-09-14T18:56:35.042Z,98726.84
2022-09-14T18:59:04.641Z,98737.28
2022-09-14T19:01:33.798Z,98723.34
2022-09-14T19:04:03.876Z,98632.03
2022-09-14T19:06:33.287Z,98722.44
2022-09-14T19:09:01.136Z,98711.13
2022-09-14T19:11:30.720Z,98697.28
2022-09-14T19:14:03.429Z,98692.06
2022-09-14T19:16:30.985Z,98622.31
2022-09-14T19:18:58.890Z,98701.50
2022-09-14T19:21:29.765Z,98694.66
2022-09-14T19:24:08.345Z,98623.97
2022-09-14T19:26:44.770Z,98698.03
2022-09-14T19:29:18.136Z,98695.41
2022-09-14T19:31:48.602Z,98663.47
2022-09-14T19:34:15.719Z,98635.97
2022-09-14T19:36:42.869Z,98685.81
2022-09-14T19:39:10.747Z,98682.31
2022-09-14T19:41:38.024Z,98679.69
2022-09-14T19:44:06.944Z,98681.53
2022-09-14T19:46:36.501Z,98677.97
2022-09-14T19:49:03.591Z,98569.47
2022-09-14T19:51:31.219Z,98603.81
2022-09-14T19:54:00.633Z,98591.84
2022-09-14T19:56:29.869Z,98677.09
2022-09-14T19:59:00.141Z,98672.72
2022-09-14T20:01:29.201Z,98631.44
2022-09-14T20:03:56.755Z,98651.44
2022-09-14T20:06:36.162Z,98670.97
2022-09-14T20:09:06.325Z,98669.25
2022-09-14T20:11:35.225Z,98672.88
2022-09-14T20:14:04.966Z,98632.31
2022-09-14T20:16:38.443Z,98661.53
2022-09-14T20:19:11.907Z,98671.03
2022-09-14T20:21:41.247Z,98671.97
2022-09-14T20:24:16.128Z,98603.97
2022-09-14T20:26:49.116Z,98657.28
2022-09-14T20:29:17.912Z,98662.41
2022-09-14T20:31:45.771Z,98652.16
2022-09-14T20:34:14.231Z,98629.81
2022-09-14T20:36:41.626Z,98637.44
2022-09-14T20:39:09.405Z,98651.16
2022-09-14T20:41:36.872Z,98579.75
2022-09-14T20:44:05.154Z,98643.44
2022-09-14T20:46:40.680Z,98646.97
2022-09-14T20:49:13.330Z,98558.28
2022-09-14T20:51:41.406Z,98621.25
2022-09-14T20:54:12.623Z,98604.09
2022-09-14T20:56:40.492Z,98636.75
2022-09-14T20:59:10.631Z,98650.59
2022-09-14T21:01:39.876Z,98642.00
2022-09-14T21:04:10.152Z,98634.16
2022-09-14T21:06:39.907Z,98627.22
2022-09-14T21:09:08.473Z,98635.00
2022-09-14T21:11:36.120Z,98641.03
2022-09-14T21:14:03.290Z,98559.22
2022-09-14T21:16:37.078Z,98584.22
2022-09-14T21:19:07.060Z,98633.28
2022-09-14T21:21:34.769Z,98632.28
2022-09-14T21:24:03.040Z,98629.72
2022-09-14T21:26:34.199Z,98626.22
2022-09-14T21:29:05.073Z,98620.09
2022-09-14T21:31:34.262Z,98529.75
2022-09-14T21:34:03.221Z,98554.72
2022-09-14T21:36:42.899Z,98536.53
2022-09-14T21:39:16.029Z,98593.47
2022-09-14T21:41:45.006Z,98590.94
2022-09-14T21:44:13.625Z,98601.38
2022-09-14T21:46:41.450Z,98603.22
2022-09-14T21:49:16.363Z,98589.44
2022-09-14T21:51:43.507Z,98592.03
2022-09-14T21:54:13.070Z,98597.28
2022-09-14T21:56:43.078Z,98598.19
2022-09-14T21:59:19.329Z,98591.34
2022-09-14T22:01:47.145Z,98586.97
2022-09-14T22:04:19.583Z,98590.44
2022-09-14T22:06:47.355Z,98579.25
2022-09-14T22:09:16.851Z,98591.34
2022-09-14T22:11:44.017Z,98569.69
2022-09-14T22:14:20.437Z,98574.81
2022-09-14T22:16:48.990Z,98562.84
2022-09-14T22:19:18.049Z,98505.97
2022-09-14T22:21:45.598Z,98528.44
2022-09-14T22:24:16.190Z,98564.63
2022-09-14T22:26:44.586Z,98530.22
2022-09-14T22:29:13.159Z,98555.91
2022-09-14T22:31:42.798Z,98555.00
2022-09-14T22:34:10.197Z,98564.47
2022-09-14T22:36:38.282Z,98552.34
2022-09-14T22:39:05.771Z,98554.09
2022-09-14T22:41:33.448Z,98533.44
2022-09-14T22:44:00.594Z,98545.47
2022-09-14T22:46:27.775Z,98545.38
2022-09-14T22:48:55.000Z,98527.22
2022-09-14T22:51:24.718Z,98523.75
2022-09-14T22:53:52.850Z,98541.78
2022-09-14T22:56:29.809Z,98543.34
2022-09-14T22:58:56.827Z,98543.97
2022-09-14T23:01:27.094Z,98493.53
2022-09-14T23:03:57.236Z,98547.72
2022-09-14T23:06:36.984Z,98540.72
2022-09-14T23:09:04.798Z,98535.63
2022-09-14T23:11:31.955Z,98537.34
2022-09-14T23:13:59.524Z,98531.31
2022-09-14T23:16:29.963Z,98542.50
2022-09-14T23:18:59.878Z,98529.63
2022-09-14T23:21:28.686Z,98513.09
2022-09-14T23:23:58.036Z,98531.25
2022-09-14T23:26:25.916Z,98522.53
2022-09-14T23:28:58.186Z,98495.06
2022-09-14T23:31:25.785Z,98532.13
2022-09-14T23:33:59.605Z,98433.03
2022-09-14T23:36:27.809Z,98506.19
2022-09-14T23:38:55.005Z,98531.19
2022-09-14T23:41:23.769Z,98514.78
2022-09-14T23:43:51.929Z,98509.59
2022-09-14T23:46:19.958Z,98520.75
2022-09-14T23:48:47.383Z,98452.94
2022-09-14T23:51:15.098Z,98498.47
2022-09-14T23:53:43.305Z,98417.63
2022-09-14T23:56:11.616Z,98505.34
2022-09-14T23:58:39.327Z,98502.66
